Time;durP1;ratioP1;P1;durP2;ratioP2;P2;SDS_P1;SDS_P2;PMS_P1;PMS_P2;Temp;Humidity;BMP_temperature;BMP_pressure;BME280_temperature;BME280_humidity;BME280_pressure;Samples;Min_cycle;Max_cycle;Signal;HPM_P1;HPM_P2
2022/04/12 00:00:55;;;;;;;9.93;6.97;;;7.50;99.90;;;;;;5156222;27;20039;-76
2022/04/12 00:03:20;;;;;;;9.82;6.80;;;7.50;99.90;;;;;;5138429;27;20073;-76
2022/04/12 00:05:46;;;;;;;11.02;7.32;;;7.50;99.90;;;;;;5137952;27;20348;-76
2022/04/12 00:08:11;;;;;;;11.27;7.90;;;7.60;99.90;;;;;;5128140;27;20455;-76
2022/04/12 00:10:37;;;;;;;11.23;8.07;;;7.50;99.90;;;;;;5135955;27;20035;-83
2022/04/12 00:13:03;;;;;;;10.45;7.43;;;7.40;99.90;;;;;;5123822;27;20431;-76
2022/04/12 00:15:29;;;;;;;9.80;7.50;;;7.40;99.90;;;;;;5138435;27;20083;-76
2022/04/12 00:20:39;;;;;;;11.07;7.43;;;7.40;99.90;;;;;;5156219;27;20092;-83
2022/04/12 00:23:04;;;;;;;8.13;7.25;;;7.40;99.90;;;;;;5138297;27;20039;-76
2022/04/12 00:25:30;;;;;;;10.85;7.00;;;7.30;99.90;;;;;;5099947;27;20047;-76
2022/04/12 00:27:57;;;;;;;10.98;7.15;;;7.30;99.90;;;;;;5100064;27;20142;-76
2022/04/12 00:30:23;;;;;;;9.15;7.00;;;7.30;99.90;;;;;;5100422;27;20043;-77
2022/04/12 00:32:50;;;;;;;10.35;7.80;;;7.30;99.90;;;;;;5115856;27;20035;-76
2022/04/12 00:35:16;;;;;;;12.35;7.95;;;7.30;99.90;;;;;;5117346;27;20039;-76
2022/04/12 00:37:42;;;;;;;10.23;7.45;;;7.20;99.90;;;;;;5116713;27;20043;-80
2022/04/12 00:40:08;;;;;;;10.32;8.00;;;7.20;99.90;;;;;;5117311;27;20054;-76
2022/04/12 00:42:34;;;;;;;8.70;7.32;;;7.20;99.90;;;;;;5135884;27;20082;-76
2022/04/12 00:44:59;;;;;;;9.13;7.30;;;7.20;99.90;;;;;;5134787;27;20135;-76
2022/04/12 00:47:25;;;;;;;10.27;7.63;;;7.20;99.90;;;;;;5135194;27;20039;-76
2022/04/12 00:49:51;;;;;;;8.27;7.43;;;7.10;99.90;;;;;;5116474;27;20031;-76
2022/04/12 00:52:16;;;;;;;9.27;7.95;;;7.20;99.90;;;;;;5116887;27;20126;-77
2022/04/12 00:54:42;;;;;;;9.23;7.70;;;7.10;99.90;;;;;;5099754;27;20051;-76
2022/04/12 00:57:08;;;;;;;11.85;8.07;;;7.10;99.90;;;;;;5082744;27;20383;-76
2022/04/12 00:59:34;;;;;;;10.50;7.72;;;7.10;99.90;;;;;;5100255;27;20038;-76
2022/04/12 01:02:05;;;;;;;11.35;8.07;;;7.10;99.90;;;;;;5134524;27;20107;-76
2022/04/12 01:04:31;;;;;;;10.95;8.10;;;7.00;99.90;;;;;;5117044;27;20506;-76
2022/04/12 01:06:56;;;;;;;10.45;8.15;;;7.10;99.90;;;;;;5099386;27;20043;-76
2022/04/12 01:09:25;;;;;;;10.02;7.55;;;7.00;99.90;;;;;;5116436;27;20043;-78
2022/04/12 01:11:52;;;;;;;10.02;8.00;;;7.00;99.90;;;;;;5099956;27;20035;-76
2022/04/12 01:14:17;;;;;;;11.45;8.20;;;7.00;99.90;;;;;;5133223;27;20050;-76
2022/04/12 01:16:43;;;;;;;10.07;7.70;;;6.90;99.90;;;;;;5105276;27;20038;-76
2022/04/12 01:19:09;;;;;;;9.95;8.00;;;6.90;99.90;;;;;;5099208;27;20367;-76
2022/04/12 01:22:01;;;;;;;10.95;7.85;;;6.90;99.90;;;;;;5116518;27;20391;-76
2022/04/12 01:24:27;;;;;;;10.25;8.05;;;6.90;99.90;;;;;;5089128;27;20051;-76
2022/04/12 01:26:53;;;;;;;11.90;8.60;;;6.80;99.90;;;;;;5115995;27;20046;-76
2022/04/12 01:29:19;;;;;;;9.55;7.65;;;6.80;99.90;;;;;;5133546;27;20043;-76
2022/04/12 01:31:44;;;;;;;11.20;8.18;;;6.70;99.90;;;;;;5116313;27;20134;-76
2022/04/12 01:34:10;;;;;;;10.52;8.50;;;6.80;99.90;;;;;;5116360;27;20039;-76
2022/04/12 01:36:35;;;;;;;11.98;8.85;;;6.70;99.90;;;;;;5123192;27;20167;-76
2022/04/12 01:39:02;;;;;;;10.23;8.60;;;6.70;99.90;;;;;;5138004;27;20035;-76
2022/04/12 01:41:29;;;;;;;12.18;8.68;;;6.70;99.90;;;;;;5136577;27;20059;-76
2022/04/12 01:43:54;;;;;;;9.43;8.27;;;6.70;99.90;;;;;;5136208;27;20121;-76
2022/04/12 01:46:20;;;;;;;11.90;8.90;;;6.70;99.90;;;;;;5136780;27;20482;-76
2022/04/12 01:48:47;;;;;;;11.05;8.32;;;6.70;99.90;;;;;;5154817;27;20034;-76
2022/04/12 01:51:13;;;;;;;10.65;8.40;;;6.70;99.90;;;;;;5135087;27;20124;-76
2022/04/12 01:53:39;;;;;;;13.60;8.57;;;6.60;99.90;;;;;;5116615;27;20471;-76
2022/04/12 01:56:05;;;;;;;11.45;8.85;;;6.50;99.90;;;;;;5133610;27;20046;-76
2022/04/12 01:58:32;;;;;;;10.38;9.20;;;6.50;99.90;;;;;;5133933;27;20042;-76
2022/04/12 02:00:58;;;;;;;10.70;8.88;;;6.50;99.90;;;;;;5133429;27;20125;-76
2022/04/12 02:03:24;;;;;;;15.07;9.18;;;6.40;99.90;;;;;;5098670;27;20035;-76
2022/04/12 02:05:51;;;;;;;11.20;9.57;;;6.40;99.90;;;;;;5115724;28;20057;-75
2022/04/12 02:08:17;;;;;;;12.00;9.45;;;6.40;99.90;;;;;;5134026;27;20105;-76
2022/04/12 02:10:43;;;;;;;11.38;9.50;;;6.50;99.90;;;;;;5098830;27;20125;-76
2022/04/12 02:13:08;;;;;;;12.20;9.38;;;6.40;99.90;;;;;;5105304;27;20121;-76
2022/04/12 02:15:34;;;;;;;12.98;9.05;;;6.30;99.90;;;;;;5119083;27;20038;-76
2022/04/12 02:17:59;;;;;;;12.35;9.95;;;6.30;99.90;;;;;;5135924;27;20042;-76
2022/04/12 02:20:25;;;;;;;10.88;9.45;;;6.30;99.90;;;;;;5154357;27;20139;-76
2022/04/12 02:22:51;;;;;;;12.70;9.65;;;6.30;99.90;;;;;;5154483;27;20181;-76
2022/04/12 02:25:16;;;;;;;11.27;9.45;;;6.30;99.90;;;;;;5116331;28;20077;-76
2022/04/12 02:27:42;;;;;;;13.93;9.40;;;6.30;99.90;;;;;;5133691;28;20419;-76
2022/04/12 02:30:08;;;;;;;12.07;9.93;;;6.20;99.90;;;;;;5132825;28;20123;-76
2022/04/12 02:32:34;;;;;;;11.73;9.52;;;6.20;99.90;;;;;;5133116;28;20074;-76
2022/04/12 02:35:00;;;;;;;12.95;9.73;;;6.20;99.90;;;;;;5133218;28;20081;-76
2022/04/12 02:37:29;;;;;;;14.32;9.95;;;6.10;99.90;;;;;;5133590;28;20054;-75
2022/04/12 02:39:54;;;;;;;14.18;10.65;;;6.20;99.90;;;;;;5115179;28;20039;-75
2022/04/12 02:42:20;;;;;;;13.50;10.02;;;6.20;99.90;;;;;;5133647;27;20058;-76
2022/04/12 02:44:46;;;;;;;11.65;10.40;;;6.20;99.90;;;;;;5115336;28;20114;-76
2022/04/12 02:47:11;;;;;;;14.40;10.30;;;6.20;99.90;;;;;;5114485;28;20035;-76
2022/04/12 02:49:37;;;;;;;12.05;10.25;;;6.10;99.90;;;;;;5098103;28;20054;-76
2022/04/12 02:52:03;;;;;;;15.85;10.18;;;6.10;99.90;;;;;;5098112;28;20077;-76
2022/04/12 02:54:28;;;;;;;14.23;11.18;;;6.10;99.90;;;;;;5115054;28;20046;-76
2022/04/12 02:56:54;;;;;;;12.60;10.20;;;6.10;99.90;;;;;;5117204;27;20038;-76
2022/04/12 02:59:20;;;;;;;12.23;9.82;;;6.10;99.90;;;;;;5119158;27;20035;-77
2022/04/12 03:01:45;;;;;;;13.40;10.48;;;6.10;99.90;;;;;;5119280;27;20066;-76
2022/04/12 03:04:11;;;;;;;12.55;10.23;;;6.10;99.90;;;;;;5118449;27;20046;-76
2022/04/12 03:06:37;;;;;;;14.73;10.60;;;6.10;99.90;;;;;;5118975;27;20091;-76
2022/04/12 03:09:02;;;;;;;12.65;10.18;;;6.10;99.90;;;;;;5137263;27;20035;-76
2022/04/12 03:11:28;;;;;;;12.32;10.95;;;6.10;99.90;;;;;;5137183;27;20379;-76
2022/04/12 03:13:54;;;;;;;12.20;10.30;;;6.10;99.90;;;;;;5132226;27;20385;-77
2022/04/12 03:16:19;;;;;;;14.02;10.52;;;6.10;99.90;;;;;;5137360;27;20111;-76
2022/04/12 03:18:45;;;;;;;11.73;9.95;;;6.10;99.90;;;;;;5118726;27;20046;-76
2022/04/12 03:21:11;;;;;;;14.30;10.13;;;6.00;99.90;;;;;;5118128;27;20489;-76
2022/04/12 03:23:37;;;;;;;11.95;10.00;;;6.00;99.90;;;;;;5085120;27;20051;-76
2022/04/12 03:26:03;;;;;;;16.63;10.95;;;6.00;99.90;;;;;;5118687;27;20077;-76
2022/04/12 03:28:29;;;;;;;13.23;10.35;;;6.00;99.90;;;;;;5136392;27;20085;-76
2022/04/12 03:30:55;;;;;;;12.07;10.57;;;6.00;99.90;;;;;;5136846;27;20443;-76
2022/04/12 03:33:20;;;;;;;12.38;9.75;;;5.90;99.90;;;;;;5138029;27;20042;-76
2022/04/12 03:35:46;;;;;;;13.95;10.88;;;5.90;99.90;;;;;;5138892;27;20067;-76
2022/04/12 03:38:13;;;;;;;12.70;10.15;;;5.90;99.90;;;;;;5157014;27;20039;-76
2022/04/12 03:40:39;;;;;;;12.13;10.82;;;6.00;99.90;;;;;;5157243;27;20039;-76
2022/04/12 03:43:05;;;;;;;12.50;10.60;;;5.90;99.90;;;;;;5138875;27;20501;-76
2022/04/12 03:45:31;;;;;;;12.85;10.93;;;5.90;99.90;;;;;;5121052;27;20041;-76
2022/04/12 03:47:57;;;;;;;13.55;10.50;;;5.90;99.90;;;;;;5157044;27;20080;-76
2022/04/12 03:50:23;;;;;;;13.73;11.25;;;5.90;99.90;;;;;;5156090;27;20409;-77
2022/04/12 03:52:50;;;;;;;13.25;10.63;;;5.80;99.90;;;;;;5121810;27;20046;-76
2022/04/12 03:55:15;;;;;;;14.88;10.82;;;5.90;99.90;;;;;;5156682;27;20048;-76
2022/04/12 03:57:41;;;;;;;12.60;10.93;;;5.90;99.90;;;;;;5138600;27;20034;-77
2022/04/12 04:00:08;;;;;;;13.20;11.48;;;5.90;99.90;;;;;;5156970;27;20088;-76
2022/04/12 04:02:34;;;;;;;12.90;11.13;;;5.90;99.90;;;;;;5156486;27;20075;-76
2022/04/12 04:05:00;;;;;;;14.75;11.65;;;5.90;99.90;;;;;;5135751;27;20493;-76
2022/04/12 04:07:27;;;;;;;12.77;11.25;;;5.90;99.90;;;;;;5147594;27;20073;-76
2022/04/12 04:09:53;;;;;;;15.88;11.07;;;5.90;99.90;;;;;;5136033;27;20056;-76
2022/04/12 04:12:19;;;;;;;13.55;11.25;;;5.90;99.90;;;;;;5145592;27;20039;-77
2022/04/12 04:14:45;;;;;;;14.80;11.50;;;5.90;99.90;;;;;;5100826;27;20092;-76
2022/04/12 04:17:10;;;;;;;13.30;11.13;;;5.90;99.90;;;;;;5117814;27;20034;-76
2022/04/12 04:19:36;;;;;;;14.00;11.20;;;5.90;99.90;;;;;;5100243;27;20039;-76
2022/04/12 04:22:02;;;;;;;14.73;10.65;;;5.90;99.90;;;;;;5117803;27;20071;-76
2022/04/12 04:24:27;;;;;;;15.02;11.50;;;5.90;99.90;;;;;;5145175;27;20042;-76
2022/04/12 04:26:55;;;;;;;14.60;11.27;;;5.80;99.90;;;;;;5138237;27;20071;-76
2022/04/12 04:29:23;;;;;;;13.35;10.88;;;5.80;99.90;;;;;;5137687;27;20042;-77
2022/04/12 04:31:51;;;;;;;14.40;11.45;;;5.80;99.90;;;;;;5156199;27;20046;-76
2022/04/12 04:34:16;;;;;;;13.73;10.90;;;5.80;99.90;;;;;;5120601;27;20049;-77
2022/04/12 04:36:42;;;;;;;14.18;11.25;;;5.80;99.90;;;;;;5100362;27;20383;-76
2022/04/12 04:39:08;;;;;;;14.55;11.27;;;5.80;99.90;;;;;;5100915;27;20165;-77
2022/04/12 04:41:33;;;;;;;14.27;11.77;;;5.80;99.90;;;;;;5116275;27;20134;-77
2022/04/12 04:44:00;;;;;;;15.80;11.40;;;5.80;99.90;;;;;;5135567;27;20043;-76
2022/04/12 04:46:26;;;;;;;11.95;10.55;;;5.70;99.90;;;;;;5138080;27;20111;-77
2022/04/12 04:48:51;;;;;;;13.57;10.98;;;5.70;99.90;;;;;;5155793;27;20245;-76
2022/04/12 04:51:17;;;;;;;17.30;12.07;;;5.70;99.90;;;;;;5155359;27;20043;-77
2022/04/12 04:53:49;;;;;;;14.93;11.45;;;5.70;99.90;;;;;;5137575;27;20045;-76
2022/04/12 04:56:14;;;;;;;14.93;12.20;;;5.80;99.90;;;;;;5135721;27;20463;-76
2022/04/12 04:58:40;;;;;;;16.65;11.68;;;5.70;99.90;;;;;;5134654;27;20122;-77
2022/04/12 05:01:06;;;;;;;13.23;11.75;;;5.70;99.90;;;;;;5134523;27;20061;-76
2022/04/12 05:03:31;;;;;;;14.93;11.48;;;5.70;99.90;;;;;;5118499;27;20497;-77
2022/04/12 05:05:58;;;;;;;12.85;11.10;;;5.70;99.90;;;;;;5102560;27;20046;-75
2022/04/12 05:08:24;;;;;;;14.18;11.77;;;5.70;99.90;;;;;;5085809;27;20050;-76
2022/04/12 05:10:51;;;;;;;13.15;11.75;;;5.70;99.90;;;;;;5113798;27;20070;-75
2022/04/12 05:13:23;;;;;;;14.85;11.27;;;5.70;99.90;;;;;;5100088;27;20382;-76
2022/04/12 05:15:48;;;;;;;15.35;12.27;;;5.70;99.90;;;;;;5098530;27;20050;-76
2022/04/12 05:18:14;;;;;;;13.00;11.43;;;5.70;99.90;;;;;;5120520;27;20386;-75
2022/04/12 05:20:39;;;;;;;15.30;11.55;;;5.60;99.90;;;;;;5104841;27;20444;-75
2022/04/12 05:23:05;;;;;;;15.48;11.60;;;5.70;99.90;;;;;;5104131;27;20042;-75
2022/04/12 05:25:31;;;;;;;15.80;11.77;;;5.80;99.90;;;;;;5127722;27;20106;-76
2022/04/12 05:27:57;;;;;;;14.82;12.23;;;5.80;99.90;;;;;;5132906;27;20083;-77
2022/04/12 05:30:22;;;;;;;16.10;11.43;;;5.90;99.90;;;;;;5153190;27;20042;-77
2022/04/12 05:32:48;;;;;;;13.75;11.65;;;6.00;99.90;;;;;;5149743;27;20042;-75
2022/04/12 05:35:14;;;;;;;15.30;11.35;;;6.00;99.90;;;;;;5132275;27;20039;-75
2022/04/12 05:37:50;;;;;;;14.02;11.85;;;6.10;99.90;;;;;;5100735;27;20038;-77
2022/04/12 05:40:18;;;;;;;16.80;11.90;;;6.20;99.90;;;;;;5119355;27;20398;-76
2022/04/12 05:42:43;;;;;;;16.05;11.02;;;6.20;99.90;;;;;;5124270;27;20050;-76
2022/04/12 05:45:10;;;;;;;14.05;11.60;;;6.30;99.90;;;;;;5121919;27;20046;-75
2022/04/12 05:47:42;;;;;;;16.15;11.88;;;6.30;99.90;;;;;;5115612;27;20043;-76
2022/04/12 05:50:09;;;;;;;13.85;11.35;;;6.40;99.90;;;;;;5099426;27;20051;-75
2022/04/12 05:52:35;;;;;;;13.10;11.02;;;6.40;99.90;;;;;;5115414;27;20418;-76
2022/04/12 05:55:00;;;;;;;13.15;11.25;;;6.40;99.90;;;;;;5082155;27;20043;-76
2022/04/12 05:57:26;;;;;;;15.35;11.23;;;6.50;99.90;;;;;;5133626;27;20047;-76
2022/04/12 05:59:51;;;;;;;13.18;11.63;;;6.50;99.90;;;;;;5082092;27;20126;-75
2022/04/12 06:02:17;;;;;;;15.63;11.35;;;6.50;99.90;;;;;;5134269;27;20129;-76
2022/04/12 06:04:43;;;;;;;16.52;12.35;;;6.50;99.90;;;;;;5115231;27;20042;-75
2022/04/12 06:07:08;;;;;;;15.23;11.40;;;6.60;99.90;;;;;;5115805;27;20035;-75
2022/04/12 06:09:34;;;;;;;12.30;11.00;;;6.60;99.90;;;;;;5133379;27;20071;-76
2022/04/12 06:12:00;;;;;;;14.35;11.45;;;6.70;99.90;;;;;;5133764;27;20099;-75
2022/04/12 06:14:26;;;;;;;15.35;11.25;;;6.70;99.90;;;;;;5115835;27;20452;-75
2022/04/12 06:16:51;;;;;;;13.15;11.13;;;6.80;99.90;;;;;;5133373;27;20074;-77
2022/04/12 06:19:17;;;;;;;14.55;11.40;;;6.80;99.90;;;;;;5115335;27;20162;-76
2022/04/12 06:21:43;;;;;;;14.07;11.60;;;6.90;99.90;;;;;;5098217;28;20055;-76
2022/04/12 06:24:08;;;;;;;14.13;11.05;;;7.00;99.90;;;;;;5115442;28;20047;-76
2022/04/12 06:26:34;;;;;;;14.23;11.93;;;7.00;99.90;;;;;;5098146;28;20058;-76
2022/04/12 06:29:00;;;;;;;13.65;11.20;;;7.00;99.90;;;;;;5133693;28;20050;-75
2022/04/12 06:31:25;;;;;;;14.13;11.48;;;7.20;99.90;;;;;;5116937;27;20376;-76
2022/04/12 06:33:51;;;;;;;13.55;10.73;;;7.10;99.90;;;;;;5085562;27;20528;-76
2022/04/12 06:36:16;;;;;;;12.95;10.90;;;7.20;99.90;;;;;;5102623;27;20043;-76
2022/04/12 06:38:42;;;;;;;13.15;11.60;;;7.20;99.90;;;;;;5119262;27;20047;-76
2022/04/12 06:41:08;;;;;;;12.77;11.40;;;7.30;99.90;;;;;;5102129;27;20199;-76
2022/04/12 06:43:34;;;;;;;12.98;11.15;;;7.30;99.90;;;;;;5119202;27;20047;-76
2022/04/12 06:45:59;;;;;;;14.77;11.30;;;7.40;99.90;;;;;;5137769;27;20043;-75
2022/04/12 06:48:25;;;;;;;14.18;11.80;;;7.40;99.90;;;;;;5137685;27;20039;-76
2022/04/12 06:50:52;;;;;;;13.38;10.93;;;7.50;99.90;;;;;;5118966;27;20043;-75
2022/04/12 06:53:18;;;;;;;13.52;10.98;;;7.50;99.90;;;;;;5119420;27;20047;-75
2022/04/12 06:55:43;;;;;;;14.50;10.85;;;7.60;99.90;;;;;;5101860;27;20051;-75
2022/04/12 06:58:09;;;;;;;13.57;10.60;;;7.60;99.90;;;;;;5085350;27;20039;-76
2022/04/12 07:00:36;;;;;;;11.95;10.10;;;7.70;99.90;;;;;;5084233;27;20042;-76
2022/04/12 07:03:02;;;;;;;13.70;10.65;;;7.70;99.90;;;;;;5118912;27;20407;-76
2022/04/12 07:05:27;;;;;;;15.10;10.93;;;7.90;99.90;;;;;;5084808;27;20055;-76
2022/04/12 07:07:54;;;;;;;15.32;10.32;;;7.80;99.90;;;;;;5136911;27;20541;-76
2022/04/12 07:10:20;;;;;;;13.38;10.55;;;7.90;99.80;;;;;;5137405;27;20096;-76
2022/04/12 07:12:46;;;;;;;11.57;10.05;;;7.90;99.70;;;;;;5101741;27;20047;-76
2022/04/12 07:15:13;;;;;;;12.80;10.00;;;8.00;99.60;;;;;;5085154;27;20051;-75
2022/04/12 07:17:38;;;;;;;17.10;10.57;;;8.10;99.50;;;;;;5118474;27;20047;-76
2022/04/12 07:20:04;;;;;;;13.27;10.05;;;8.10;99.20;;;;;;5118835;27;20046;-76
2022/04/12 07:22:30;;;;;;;12.93;10.15;;;8.20;99.00;;;;;;5085105;27;20133;-76
2022/04/12 07:24:56;;;;;;;12.57;9.98;;;8.30;98.80;;;;;;5118467;27;20134;-76
2022/04/12 07:27:22;;;;;;;13.68;9.68;;;8.40;98.60;;;;;;5136907;27;20047;-76
2022/04/12 07:29:47;;;;;;;12.50;9.80;;;8.50;98.30;;;;;;5101442;27;20051;-76
2022/04/12 07:32:13;;;;;;;14.27;10.30;;;8.40;97.80;;;;;;5118272;27;20126;-75
2022/04/12 07:34:38;;;;;;;14.48;10.00;;;8.60;97.60;;;;;;5117960;27;20039;-75
2022/04/12 07:37:04;;;;;;;10.93;9.57;;;8.70;97.40;;;;;;5118546;27;20391;-75
2022/04/12 07:39:30;;;;;;;13.15;10.30;;;8.80;97.10;;;;;;5118299;27;20047;-75
2022/04/12 07:41:56;;;;;;;12.50;9.90;;;8.80;96.90;;;;;;5117206;27;20047;-74
2022/04/12 07:44:21;;;;;;;12.88;10.30;;;9.00;96.80;;;;;;5136653;27;20475;-75
2022/04/12 07:46:47;;;;;;;13.20;9.55;;;9.10;96.80;;;;;;5117652;27;20043;-74
2022/04/12 07:49:13;;;;;;;12.63;9.40;;;9.20;96.30;;;;;;5101303;27;20043;-75
2022/04/12 07:51:39;;;;;;;10.88;9.48;;;9.30;96.50;;;;;;5118062;27;20497;-74
2022/04/12 07:54:06;;;;;;;11.10;9.23;;;9.40;96.30;;;;;;5136213;27;20447;-74
2022/04/12 07:56:32;;;;;;;11.20;9.45;;;9.50;95.50;;;;;;5118243;27;20125;-76
2022/04/12 07:58:57;;;;;;;10.15;9.05;;;9.70;94.80;;;;;;5135914;27;20459;-75
2022/04/12 08:01:23;;;;;;;13.25;9.35;;;9.80;94.20;;;;;;5117810;27;20039;-74
2022/04/12 08:03:48;;;;;;;14.57;10.00;;;9.90;94.30;;;;;;5117670;27;20086;-75
2022/04/12 08:06:14;;;;;;;13.70;9.75;;;10.00;93.50;;;;;;5083909;27;20051;-75
2022/04/12 08:08:40;;;;;;;12.70;9.38;;;10.00;92.80;;;;;;5101111;27;20050;-75
2022/04/12 08:11:05;;;;;;;11.38;9.13;;;10.10;92.50;;;;;;5100458;27;20099;-76
2022/04/12 08:13:31;;;;;;;13.77;9.55;;;10.10;92.30;;;;;;5135983;27;20089;-76
2022/04/12 08:15:57;;;;;;;11.93;9.05;;;10.10;92.40;;;;;;5116996;27;20134;-75
2022/04/12 08:18:23;;;;;;;11.55;8.85;;;10.20;92.20;;;;;;5100827;27;20496;-74
2022/04/12 08:20:53;;;;;;;11.40;9.43;;;10.30;92.20;;;;;;5099979;27;20380;-74
2022/04/12 08:23:22;;;;;;;10.60;9.27;;;10.30;92.00;;;;;;5117747;27;20123;-73
2022/04/12 08:25:47;;;;;;;11.07;8.77;;;10.40;92.00;;;;;;5100307;27;20047;-73
2022/04/12 08:28:13;;;;;;;11.88;8.55;;;10.40;91.30;;;;;;5083768;27;20199;-73
2022/04/12 08:30:39;;;;;;;9.55;8.27;;;10.50;90.80;;;;;;5100169;27;20560;-73
2022/04/12 08:33:05;;;;;;;11.60;9.05;;;10.60;90.80;;;;;;5116741;27;20055;-73
2022/04/12 08:35:30;;;;;;;13.43;9.38;;;10.70;91.20;;;;;;5066911;27;20042;-73
2022/04/12 08:37:56;;;;;;;11.85;9.32;;;10.70;91.20;;;;;;5116820;27;20051;-73
2022/04/12 08:40:22;;;;;;;16.98;9.05;;;10.80;91.00;;;;;;5083209;27;20035;-73
2022/04/12 08:42:47;;;;;;;11.63;8.60;;;10.90;91.00;;;;;;5079182;28;20048;-74
2022/04/12 08:45:13;;;;;;;13.38;9.02;;;11.00;90.90;;;;;;5096769;28;20518;-75
2022/04/12 08:47:39;;;;;;;11.82;8.93;;;11.10;90.30;;;;;;5113483;28;20051;-74
2022/04/12 08:50:06;;;;;;;13.10;8.65;;;11.20;89.30;;;;;;5096367;28;20126;-74
2022/04/12 08:52:31;;;;;;;12.75;9.00;;;11.30;89.10;;;;;;5080022;28;20039;-74
2022/04/12 08:54:57;;;;;;;12.98;8.63;;;11.30;89.90;;;;;;5094971;28;20051;-74
2022/04/12 08:57:23;;;;;;;10.35;8.95;;;11.40;87.90;;;;;;5079597;28;20487;-74
2022/04/12 08:59:48;;;;;;;11.60;8.95;;;11.50;86.90;;;;;;5112864;28;20368;-76
2022/04/12 09:02:15;;;;;;;10.57;8.80;;;11.60;86.50;;;;;;5079596;28;20054;-74
2022/04/12 09:04:41;;;;;;;10.20;8.60;;;11.60;85.30;;;;;;5096268;28;20043;-74
2022/04/12 09:07:08;;;;;;;11.65;8.55;;;11.60;86.10;;;;;;5095577;28;20059;-74
2022/04/12 09:09:34;;;;;;;9.57;7.78;;;11.70;84.50;;;;;;5096163;28;20063;-76
2022/04/12 09:12:02;;;;;;;10.85;8.55;;;11.80;83.90;;;;;;5078872;28;20051;-76
2022/04/12 09:14:42;;;;;;;10.57;8.73;;;11.80;84.10;;;;;;5096428;28;20077;-76
2022/04/12 09:17:15;;;;;;;12.15;8.27;;;11.90;80.10;;;;;;5080890;28;20057;-76
2022/04/12 09:19:59;;;;;;;10.57;8.15;;;11.90;82.20;;;;;;5112713;28;20040;-76
2022/04/12 09:22:27;;;;;;;9.75;8.27;;;12.00;82.20;;;;;;5112749;28;20072;-76
2022/04/12 09:24:53;;;;;;;13.07;8.45;;;11.90;83.50;;;;;;5095550;28;20047;-76
2022/04/12 09:27:22;;;;;;;11.65;7.75;;;12.00;83.40;;;;;;5095996;28;20045;-76
2022/04/12 09:29:50;;;;;;;12.15;8.43;;;12.10;82.90;;;;;;5095431;28;20068;-76
2022/04/12 09:32:17;;;;;;;11.85;7.80;;;12.20;81.20;;;;;;5078698;28;20079;-76
2022/04/12 09:34:43;;;;;;;10.13;7.78;;;12.20;80.20;;;;;;5078682;28;20062;-75
2022/04/12 09:37:18;;;;;;;9.93;7.85;;;12.30;81.10;;;;;;5078691;28;20364;-76
2022/04/12 09:40:00;;;;;;;9.60;7.88;;;12.30;79.80;;;;;;5112481;28;20062;-76
2022/04/12 09:42:49;;;;;;;12.43;7.97;;;12.40;80.80;;;;;;5080134;28;20055;-76
2022/04/12 09:45:14;;;;;;;10.15;8.40;;;12.40;78.60;;;;;;5112249;28;20070;-76
2022/04/12 09:47:40;;;;;;;8.98;7.95;;;12.50;80.50;;;;;;5112427;28;20043;-76
2022/04/12 09:50:10;;;;;;;9.77;7.82;;;12.60;78.10;;;;;;5094680;28;20055;-76
2022/04/12 09:52:37;;;;;;;9.27;8.25;;;12.60;77.90;;;;;;5113429;28;20104;-76
2022/04/12 09:55:06;;;;;;;10.05;8.38;;;12.60;78.50;;;;;;5079232;28;20043;-76
2022/04/12 09:57:32;;;;;;;10.25;8.40;;;12.60;78.30;;;;;;5095638;28;20054;-76
2022/04/12 09:59:59;;;;;;;10.90;8.35;;;12.70;78.10;;;;;;5077534;28;20399;-76
2022/04/12 10:02:27;;;;;;;12.57;8.82;;;12.70;78.50;;;;;;5094982;28;20043;-76
2022/04/12 10:04:54;;;;;;;11.95;8.40;;;12.80;78.50;;;;;;5095098;28;20484;-76
2022/04/12 10:07:23;;;;;;;10.45;8.35;;;12.80;77.70;;;;;;5061226;28;20087;-76
2022/04/12 10:09:50;;;;;;;11.23;8.82;;;12.90;78.10;;;;;;5078045;28;20495;-77
2022/04/12 10:12:17;;;;;;;13.20;8.63;;;13.00;78.30;;;;;;5110130;28;20043;-77
2022/04/12 10:14:43;;;;;;;11.40;9.05;;;13.10;78.20;;;;;;5060666;28;20048;-76
2022/04/12 10:17:13;;;;;;;11.30;9.30;;;13.10;78.40;;;;;;5092720;28;20059;-78
2022/04/12 10:19:42;;;;;;;12.30;8.90;;;13.10;77.40;;;;;;5111722;28;20086;-76
2022/04/12 10:22:08;;;;;;;11.77;8.52;;;13.10;78.70;;;;;;5110053;28;20055;-76
2022/04/12 10:24:41;;;;;;;10.02;8.63;;;13.20;78.60;;;;;;5095669;28;20081;-76
2022/04/12 10:27:15;;;;;;;11.95;8.50;;;13.20;77.50;;;;;;5094941;28;20475;-76
2022/04/12 10:29:50;;;;;;;12.68;8.50;;;13.30;78.70;;;;;;5094601;28;20073;-76
2022/04/12 10:32:20;;;;;;;11.98;8.32;;;13.30;78.80;;;;;;5079356;28;20083;-76
2022/04/12 10:35:02;;;;;;;10.52;8.70;;;13.30;79.50;;;;;;5095608;28;20042;-76
2022/04/12 10:37:37;;;;;;;10.48;8.27;;;13.40;79.50;;;;;;5112683;28;20044;-76
2022/04/12 10:40:06;;;;;;;16.30;8.63;;;13.50;79.60;;;;;;5094390;28;20090;-77
2022/04/12 10:42:33;;;;;;;10.32;8.25;;;13.60;79.10;;;;;;5095143;28;20059;-76
2022/04/12 10:45:08;;;;;;;10.23;8.25;;;13.70;78.50;;;;;;5077971;28;20090;-76
2022/04/12 10:47:40;;;;;;;12.65;8.23;;;13.70;78.00;;;;;;5096344;28;20506;-76
2022/04/12 10:50:19;;;;;;;12.10;8.18;;;13.80;78.40;;;;;;5061455;28;20051;-76
2022/04/12 10:52:49;;;;;;;9.45;8.20;;;13.90;77.10;;;;;;5110856;28;20063;-76
2022/04/12 10:55:25;;;;;;;13.63;8.85;;;13.90;77.50;;;;;;5094190;28;20044;-76
2022/04/12 10:58:09;;;;;;;10.55;8.20;;;14.00;76.90;;;;;;5111689;28;20052;-76
2022/04/12 11:00:52;;;;;;;9.82;8.65;;;14.00;77.80;;;;;;5099244;28;20428;-76
2022/04/12 11:04:06;;;;;;;11.70;8.55;;;14.10;77.70;;;;;;5078546;28;20377;-76
2022/04/12 11:06:36;;;;;;;11.93;8.35;;;14.30;76.40;;;;;;5111625;28;20176;-76
2022/04/12 11:09:11;;;;;;;9.82;8.15;;;14.40;76.20;;;;;;5078633;28;20048;-76
2022/04/12 11:11:52;;;;;;;10.05;7.63;;;14.40;77.10;;;;;;5111196;28;20131;-76
2022/04/12 11:14:47;;;;;;;11.93;8.38;;;14.60;76.00;;;;;;5075924;28;20051;-76
2022/04/12 11:17:26;;;;;;;9.57;7.82;;;14.60;74.70;;;;;;5111456;28;20130;-77
2022/04/12 11:20:00;;;;;;;11.10;7.40;;;14.70;75.60;;;;;;5087030;28;20082;-76
2022/04/12 11:22:31;;;;;;;11.05;7.88;;;14.80;75.70;;;;;;5077025;28;20548;-77
2022/04/12 11:25:15;;;;;;;10.27;7.70;;;14.80;76.90;;;;;;5099392;28;20047;-78
2022/04/12 11:27:49;;;;;;;12.77;7.97;;;15.00;74.10;;;;;;5115211;28;20051;-76
2022/04/12 11:30:17;;;;;;;13.35;7.72;;;15.00;75.60;;;;;;5114579;28;20047;-76
2022/04/12 11:32:44;;;;;;;10.35;8.10;;;15.10;74.30;;;;;;5114508;28;20051;-76
2022/04/12 11:35:13;;;;;;;12.98;8.35;;;15.10;73.50;;;;;;5095505;28;20048;-76
2022/04/12 11:37:40;;;;;;;9.77;7.90;;;15.10;73.80;;;;;;5081308;28;20044;-76
2022/04/12 11:40:09;;;;;;;11.70;7.70;;;15.20;73.20;;;;;;5064458;28;20051;-76
2022/04/12 11:42:40;;;;;;;10.70;8.02;;;15.30;73.10;;;;;;5098613;28;20052;-76
2022/04/12 11:45:14;;;;;;;9.77;7.50;;;15.30;73.00;;;;;;5081259;28;20135;-76
2022/04/12 11:47:45;;;;;;;11.07;7.80;;;15.40;73.40;;;;;;5098793;28;20058;-76
2022/04/12 11:50:26;;;;;;;13.60;8.55;;;15.40;72.70;;;;;;5099454;28;20042;-76
2022/04/12 11:52:51;;;;;;;10.98;8.15;;;15.50;72.50;;;;;;5080633;28;20048;-76
2022/04/12 11:55:17;;;;;;;12.75;7.90;;;15.60;73.10;;;;;;5097254;28;20090;-76
2022/04/12 11:57:52;;;;;;;10.80;7.78;;;15.70;72.70;;;;;;5099141;28;20096;-76
2022/04/12 12:00:26;;;;;;;12.35;7.22;;;15.80;71.20;;;;;;5097250;28;20048;-76
2022/04/12 12:02:52;;;;;;;10.40;7.00;;;15.90;71.30;;;;;;5115903;27;20055;-76
2022/04/12 12:05:22;;;;;;;9.98;7.35;;;16.00;71.30;;;;;;5080105;28;20043;-76
2022/04/12 12:07:49;;;;;;;11.02;7.03;;;16.20;71.70;;;;;;5114255;28;20052;-76
2022/04/12 12:10:17;;;;;;;9.20;6.38;;;16.20;71.20;;;;;;5112842;28;20051;-76
2022/04/12 12:12:46;;;;;;;8.05;6.30;;;16.30;70.10;;;;;;5063997;28;20613;-76
2022/04/12 12:15:18;;;;;;;9.65;7.10;;;16.40;69.60;;;;;;5097134;28;20047;-76
2022/04/12 12:17:48;;;;;;;9.40;7.25;;;16.50;68.80;;;;;;5096810;28;20094;-76
2022/04/12 12:20:14;;;;;;;10.13;7.33;;;16.50;69.00;;;;;;5064539;28;20387;-81
2022/04/12 12:22:42;;;;;;;9.20;6.82;;;16.50;69.10;;;;;;5096639;28;20048;-76
2022/04/12 12:25:21;;;;;;;9.05;6.28;;;16.60;69.50;;;;;;5082256;28;20066;-76
2022/04/12 12:27:52;;;;;;;10.10;7.30;;;16.70;70.10;;;;;;5082436;28;20086;-76
2022/04/12 12:30:20;;;;;;;9.65;7.28;;;16.80;66.80;;;;;;5095344;28;20051;-76
2022/04/12 12:32:47;;;;;;;9.23;7.32;;;16.80;67.10;;;;;;5114387;28;20130;-76
2022/04/12 12:35:15;;;;;;;8.85;7.93;;;16.90;66.90;;;;;;5114373;27;20091;-76
2022/04/12 12:37:46;;;;;;;10.65;7.30;;;16.90;66.50;;;;;;5097446;28;20140;-76
2022/04/12 12:40:30;;;;;;;8.63;7.50;;;16.90;67.00;;;;;;5080123;28;20195;-76
2022/04/12 12:43:04;;;;;;;9.85;8.02;;;17.00;66.90;;;;;;5113412;28;20488;-77
2022/04/12 12:45:31;;;;;;;11.98;8.23;;;17.00;67.50;;;;;;5062687;28;20117;-76